createdAt,value
2023-12-21T00:02:10.266Z,7.21
2023-12-21T00:04:36.734Z,7.80
2023-12-21T00:07:03.312Z,8.22
2023-12-21T00:09:29.920Z,8.26
2023-12-21T00:11:57.103Z,8.18
2023-12-21T00:14:25.017Z,7.89
2023-12-21T00:16:51.443Z,8.16
2023-12-21T00:19:18.109Z,7.77
2023-12-21T00:21:44.615Z,8.04
2023-12-21T00:24:11.024Z,8.06
2023-12-21T00:26:37.533Z,8.16
2023-12-21T00:29:03.947Z,7.86
2023-12-21T00:31:30.505Z,7.99
2023-12-21T00:33:57.086Z,7.89
2023-12-21T00:36:23.600Z,8.26
2023-12-21T00:38:49.966Z,8.12
2023-12-21T00:41:16.372Z,8.28
2023-12-21T00:43:42.940Z,7.68
2023-12-21T00:46:09.378Z,8.15
2023-12-21T00:48:35.934Z,8.31
2023-12-21T00:51:02.487Z,8.28
2023-12-21T00:53:28.903Z,8.11
2023-12-21T00:55:55.290Z,7.96
2023-12-21T00:58:21.855Z,8.22
2023-12-21T01:00:48.353Z,8.03
2023-12-21T01:03:14.798Z,8.06
2023-12-21T01:05:41.526Z,8.16
2023-12-21T01:08:08.270Z,8.25
2023-12-21T01:10:34.802Z,7.96
2023-12-21T01:13:01.644Z,8.03
2023-12-21T01:15:28.062Z,8.12
2023-12-21T01:17:54.641Z,8.22
2023-12-21T01:20:21.200Z,8.04
2023-12-21T01:22:47.617Z,8.25
2023-12-21T01:25:14.137Z,8.28
2023-12-21T01:27:40.513Z,8.12
2023-12-21T01:30:07.913Z,8.21
2023-12-21T01:32:34.400Z,8.26
2023-12-21T01:35:01.228Z,8.22
2023-12-21T01:37:27.805Z,8.25
2023-12-21T01:39:54.514Z,7.93
2023-12-21T01:42:21.063Z,8.30
2023-12-21T01:44:47.441Z,8.26
2023-12-21T01:47:13.937Z,8.28
2023-12-21T01:49:42.779Z,8.15
2023-12-21T01:52:10.313Z,7.41
2023-12-21T01:54:37.507Z,8.28
2023-12-21T01:57:04.132Z,7.99
2023-12-21T01:59:31.180Z,8.17
2023-12-21T02:01:57.683Z,8.09
2023-12-21T02:04:25.564Z,8.34
2023-12-21T02:06:52.080Z,7.77
2023-12-21T02:09:18.570Z,8.29
2023-12-21T02:11:47.208Z,8.37
2023-12-21T02:14:13.624Z,8.44
2023-12-21T02:16:48.140Z,8.37
2023-12-21T02:19:15.094Z,8.35
2023-12-21T02:21:43.786Z,8.27
2023-12-21T02:24:15.240Z,8.39
2023-12-21T02:26:43.087Z,8.34
2023-12-21T02:29:09.777Z,8.42
2023-12-21T02:31:37.385Z,7.45
2023-12-21T02:34:06.899Z,8.19
2023-12-21T02:36:34.088Z,8.41
2023-12-21T02:39:00.625Z,8.35
2023-12-21T02:41:27.029Z,8.21
2023-12-21T02:43:53.481Z,8.30
2023-12-21T02:46:20.986Z,8.45
2023-12-21T02:48:47.519Z,8.32
2023-12-21T02:51:14.008Z,8.44
2023-12-21T02:53:41.076Z,8.20
2023-12-21T02:56:07.624Z,8.51
2023-12-21T02:58:34.263Z,8.57
2023-12-21T03:01:02.324Z,8.64
2023-12-21T03:03:28.858Z,8.47
2023-12-21T03:05:55.323Z,8.38
2023-12-21T03:08:24.066Z,8.49
2023-12-21T03:10:50.917Z,8.59
2023-12-21T03:13:17.407Z,8.66
2023-12-21T03:15:43.889Z,8.33
2023-12-21T03:18:11.496Z,8.20
2023-12-21T03:20:37.911Z,8.45
2023-12-21T03:23:04.459Z,8.50
2023-12-21T03:25:31.304Z,8.70
2023-12-21T03:27:57.915Z,8.31
2023-12-21T03:30:24.319Z,8.28
2023-12-21T03:32:50.970Z,8.61
2023-12-21T03:35:17.614Z,8.59
2023-12-21T03:37:44.034Z,8.35
2023-12-21T03:40:10.747Z,8.37
2023-12-21T03:42:37.198Z,8.43
2023-12-21T03:45:04.308Z,8.43
2023-12-21T03:47:30.660Z,8.49
2023-12-21T03:49:57.179Z,8.22
2023-12-21T03:52:23.745Z,8.42
2023-12-21T03:54:50.170Z,8.08
2023-12-21T03:57:16.623Z,8.54
2023-12-21T03:59:43.060Z,8.47
2023-12-21T04:02:09.456Z,8.53
2023-12-21T04:04:37.067Z,8.37
2023-12-21T04:07:03.629Z,8.57
2023-12-21T04:09:30.075Z,8.58
2023-12-21T04:11:56.540Z,8.45
2023-12-21T04:14:22.937Z,7.90
2023-12-21T04:16:49.452Z,8.22
2023-12-21T04:19:15.913Z,8.31
2023-12-21T04:21:43.032Z,8.51
2023-12-21T04:24:09.477Z,8.52
2023-12-21T04:26:35.909Z,8.39
2023-12-21T04:29:02.384Z,8.40
2023-12-21T04:31:28.771Z,8.28
2023-12-21T04:33:55.416Z,8.39
2023-12-21T04:36:25.451Z,8.55
2023-12-21T04:38:53.664Z,8.45
2023-12-21T04:41:21.220Z,8.66
2023-12-21T04:43:47.835Z,8.47
2023-12-21T04:46:14.287Z,8.42
2023-12-21T04:48:40.811Z,8.54
2023-12-21T04:51:07.290Z,8.49
2023-12-21T04:53:33.723Z,8.44
2023-12-21T04:56:04.039Z,7.49
2023-12-21T04:58:30.430Z,8.46
2023-12-21T05:00:56.859Z,8.42
2023-12-21T05:03:23.326Z,8.58
2023-12-21T05:05:50.444Z,8.62
2023-12-21T05:08:16.904Z,8.39
2023-12-21T05:10:43.388Z,8.52
2023-12-21T05:13:09.883Z,8.15
2023-12-21T05:15:36.375Z,8.47
2023-12-21T05:18:02.930Z,8.43
2023-12-21T05:20:30.246Z,7.87
2023-12-21T05:23:00.331Z,8.53
2023-12-21T05:25:27.709Z,8.59
2023-12-21T05:27:54.590Z,8.61
2023-12-21T05:30:21.581Z,8.26
2023-12-21T05:32:48.362Z,8.54
2023-12-21T05:35:15.193Z,8.55
2023-12-21T05:37:41.980Z,8.47
2023-12-21T05:40:10.931Z,8.54
2023-12-21T05:42:37.400Z,8.36
2023-12-21T05:45:04.125Z,8.65
2023-12-21T05:47:32.801Z,8.55
2023-12-21T05:49:59.728Z,8.56
2023-12-21T05:52:26.902Z,8.54
2023-12-21T05:54:53.516Z,8.67
2023-12-21T05:57:19.983Z,8.58
2023-12-21T05:59:46.471Z,8.42
2023-12-21T06:02:13.042Z,8.62
2023-12-21T06:04:39.570Z,8.56
2023-12-21T06:07:06.138Z,8.46
2023-12-21T06:09:32.598Z,8.41
2023-12-21T06:11:58.998Z,8.46
2023-12-21T06:14:25.440Z,8.59
2023-12-21T06:16:51.809Z,8.50
2023-12-21T06:19:18.368Z,8.26
2023-12-21T06:21:44.969Z,8.67
2023-12-21T06:24:11.405Z,8.63
2023-12-21T06:26:41.651Z,8.53
2023-12-21T06:29:08.479Z,8.64
2023-12-21T06:31:36.386Z,8.32
2023-12-21T06:34:03.411Z,8.50
2023-12-21T06:36:30.307Z,8.73
2023-12-21T06:38:56.680Z,8.62
2023-12-21T06:41:23.204Z,8.68
2023-12-21T06:43:49.906Z,8.58
2023-12-21T06:46:16.759Z,8.57
2023-12-21T06:48:43.456Z,8.31
2023-12-21T06:51:10.012Z,8.41
2023-12-21T06:53:36.425Z,8.43
2023-12-21T06:56:17.694Z,8.57
2023-12-21T06:58:49.475Z,8.55
2023-12-21T07:01:15.977Z,8.58
2023-12-21T07:03:42.671Z,8.25
2023-12-21T07:06:12.238Z,8.60
2023-12-21T07:08:38.734Z,8.64
2023-12-21T07:11:05.213Z,8.38
2023-12-21T07:13:31.899Z,8.44
2023-12-21T07:15:58.550Z,8.53
2023-12-21T07:18:25.111Z,8.38
2023-12-21T07:20:51.618Z,8.60
2023-12-21T07:23:18.198Z,8.35
2023-12-21T07:25:44.764Z,8.52
2023-12-21T07:28:11.266Z,8.51
2023-12-21T07:30:37.733Z,8.56
2023-12-21T07:33:06.413Z,8.30
2023-12-21T07:35:33.112Z,8.03
2023-12-21T07:37:59.461Z,8.64
2023-12-21T07:40:25.952Z,8.53
2023-12-21T07:42:52.480Z,8.56
2023-12-21T07:45:18.963Z,8.67
2023-12-21T07:47:45.397Z,8.67
2023-12-21T07:50:11.768Z,8.50
2023-12-21T07:52:39.207Z,8.06
2023-12-21T07:55:06.646Z,8.55
2023-12-21T07:57:33.487Z,8.65
2023-12-21T08:00:00.262Z,8.71
2023-12-21T08:02:26.952Z,8.54
2023-12-21T08:04:53.513Z,8.58
2023-12-21T08:07:19.949Z,8.56
2023-12-21T08:09:46.373Z,8.78
2023-12-21T08:12:15.540Z,8.14
2023-12-21T08:14:42.269Z,8.78
2023-12-21T08:17:11.358Z,8.65
2023-12-21T08:19:38.602Z,8.05
2023-12-21T08:22:05.957Z,8.63
2023-12-21T08:24:32.734Z,8.76
2023-12-21T08:26:59.753Z,8.76
2023-12-21T08:29:26.220Z,8.70
2023-12-21T08:31:52.677Z,8.60
2023-12-21T08:34:19.371Z,7.89
2023-12-21T08:36:45.817Z,8.64
2023-12-21T08:39:12.386Z,8.41
2023-12-21T08:41:38.730Z,8.71
2023-12-21T08:44:05.187Z,8.66
2023-12-21T08:46:31.570Z,8.76
2023-12-21T08:48:58.424Z,8.66
2023-12-21T08:51:25.006Z,8.81
2023-12-21T08:53:51.474Z,8.59
2023-12-21T08:56:18.070Z,8.58
2023-12-21T08:58:44.543Z,7.82
2023-12-21T09:01:11.678Z,8.73
2023-12-21T09:03:38.268Z,8.63
2023-12-21T09:06:05.221Z,8.60
2023-12-21T09:08:31.718Z,8.66
2023-12-21T09:10:58.141Z,8.78
2023-12-21T09:13:24.608Z,8.63
2023-12-21T09:15:51.167Z,8.85
2023-12-21T09:18:17.699Z,8.53
2023-12-21T09:20:44.199Z,8.90
2023-12-21T09:23:10.561Z,8.75
2023-12-21T09:25:37.055Z,8.38
2023-12-21T09:28:04.364Z,8.60
2023-12-21T09:30:31.772Z,8.53
2023-12-21T09:33:01.802Z,8.89
2023-12-21T09:35:28.467Z,8.88
2023-12-21T09:37:54.929Z,8.32
2023-12-21T09:40:21.553Z,8.67
2023-12-21T09:43:01.140Z,8.24
2023-12-21T09:45:32.369Z,8.04
2023-12-21T09:47:59.964Z,8.88
2023-12-21T09:50:27.796Z,9.06
2023-12-21T09:52:55.170Z,8.73
2023-12-21T09:55:23.450Z,9.03
2023-12-21T09:57:51.453Z,9.00
2023-12-21T10:00:18.320Z,8.85
2023-12-21T10:02:44.745Z,8.79
2023-12-21T10:05:12.477Z,8.79
2023-12-21T10:07:40.723Z,8.86
2023-12-21T10:10:07.773Z,8.82
2023-12-21T10:12:34.474Z,9.06
2023-12-21T10:15:00.957Z,8.68
2023-12-21T10:17:27.402Z,9.01
2023-12-21T10:19:53.833Z,9.01
2023-12-21T10:22:20.532Z,9.02
2023-12-21T10:24:52.020Z,9.21
2023-12-21T10:27:19.795Z,9.02
2023-12-21T10:29:54.279Z,9.09
2023-12-21T10:32:21.610Z,9.27
2023-12-21T10:34:48.747Z,8.90
2023-12-21T10:37:18.471Z,9.21
2023-12-21T10:39:45.304Z,9.06
2023-12-21T10:42:14.688Z,9.07
2023-12-21T10:44:45.609Z,9.25
2023-12-21T10:47:13.431Z,9.34
2023-12-21T10:49:41.522Z,9.33
2023-12-21T10:52:08.569Z,9.17
2023-12-21T10:54:37.237Z,9.25
2023-12-21T10:57:05.546Z,9.14
2023-12-21T10:59:33.500Z,8.65
2023-12-21T11:02:00.820Z,9.17
2023-12-21T11:04:29.023Z,8.53
2023-12-21T11:06:55.930Z,9.28
2023-12-21T11:09:27.899Z,9.33
2023-12-21T11:11:58.543Z,9.18
2023-12-21T11:14:25.598Z,9.32
2023-12-21T11:17:01.349Z,9.31
2023-12-21T11:19:36.896Z,9.39
2023-12-21T11:22:05.241Z,9.14
2023-12-21T11:24:31.864Z,9.09
2023-12-21T11:27:00.394Z,9.29
2023-12-21T11:29:29.623Z,9.40
2023-12-21T11:31:57.148Z,9.46
2023-12-21T11:34:35.764Z,9.33
2023-12-21T11:37:27.811Z,9.42
2023-12-21T11:40:00.850Z,9.23
2023-12-21T11:42:37.521Z,9.31
2023-12-21T11:45:07.782Z,8.59
2023-12-21T11:47:34.448Z,8.80
2023-12-21T11:50:20.711Z,8.73
2023-12-21T11:52:52.420Z,8.59
2023-12-21T11:55:26.487Z,8.31
2023-12-21T11:58:20.632Z,8.42
2023-12-21T12:00:50.590Z,8.34
2023-12-21T12:03:18.919Z,8.22
2023-12-21T12:05:46.183Z,7.89
2023-12-21T12:08:12.866Z,8.19
2023-12-21T12:10:39.610Z,8.11
2023-12-21T12:13:07.109Z,7.70
2023-12-21T12:15:36.017Z,7.95
2023-12-21T12:18:09.055Z,7.65
2023-12-21T12:20:42.426Z,8.00
2023-12-21T12:23:09.146Z,7.83
2023-12-21T12:25:43.025Z,7.72
2023-12-21T12:28:13.714Z,7.45
2023-12-21T12:30:42.453Z,7.39
2023-12-21T12:33:09.899Z,7.59
2023-12-21T12:35:40.200Z,7.59
2023-12-21T12:38:07.919Z,7.65
2023-12-21T12:40:35.718Z,7.36
2023-12-21T12:43:02.810Z,7.59
2023-12-21T12:45:30.743Z,7.62
2023-12-21T12:47:57.480Z,6.66
2023-12-21T12:50:27.667Z,7.37
2023-12-21T12:52:54.195Z,7.27
2023-12-21T12:55:22.109Z,7.68
2023-12-21T12:57:51.496Z,7.30
2023-12-21T13:00:21.306Z,7.86
2023-12-21T13:02:48.443Z,7.56
2023-12-21T13:05:18.218Z,7.31
2023-12-21T13:07:44.794Z,6.23
2023-12-21T13:10:15.403Z,6.96
2023-12-21T13:12:43.705Z,6.40
2023-12-21T13:15:12.525Z,7.15
2023-12-21T13:17:39.065Z,6.98
2023-12-21T13:20:10.795Z,7.30
2023-12-21T13:22:37.980Z,7.37
2023-12-21T13:25:05.151Z,7.36
2023-12-21T13:27:32.895Z,7.45
2023-12-21T13:29:59.293Z,7.50
2023-12-21T13:32:26.159Z,7.60
2023-12-21T13:34:52.777Z,7.49
2023-12-21T13:37:19.386Z,7.49
2023-12-21T13:39:49.754Z,7.68
2023-12-21T13:42:16.958Z,7.48
2023-12-21T13:44:44.046Z,7.59
2023-12-21T13:47:10.756Z,7.56
2023-12-21T13:49:37.303Z,7.51
2023-12-21T13:52:03.990Z,7.44
2023-12-21T13:54:30.392Z,7.77
2023-12-21T13:57:06.874Z,7.72
2023-12-21T13:59:37.815Z,7.73
2023-12-21T14:02:04.522Z,7.42
2023-12-21T14:04:31.233Z,7.75
2023-12-21T14:06:58.405Z,7.67
2023-12-21T14:09:25.575Z,7.26
2023-12-21T14:11:52.175Z,7.45
2023-12-21T14:14:18.611Z,7.47
2023-12-21T14:16:45.074Z,7.48
2023-12-21T14:19:12.435Z,7.43
2023-12-21T14:21:38.947Z,7.49
2023-12-21T14:24:05.829Z,6.73
2023-12-21T14:26:32.219Z,6.90
2023-12-21T14:28:58.620Z,7.30
2023-12-21T14:31:25.292Z,7.18
2023-12-21T14:33:52.181Z,7.00
2023-12-21T14:36:19.447Z,6.85
2023-12-21T14:38:46.010Z,6.70
2023-12-21T14:41:12.659Z,6.83
2023-12-21T14:43:39.725Z,6.81
2023-12-21T14:46:06.448Z,6.67
2023-12-21T14:48:33.086Z,6.44
2023-12-21T14:50:59.492Z,6.69
2023-12-21T14:53:25.936Z,6.10
2023-12-21T14:55:52.693Z,6.36
2023-12-21T14:58:19.319Z,6.40
2023-12-21T15:00:46.063Z,6.72
2023-12-21T15:03:12.814Z,6.61
2023-12-21T15:05:39.369Z,6.71
2023-12-21T15:08:08.645Z,6.74
2023-12-21T15:10:37.215Z,6.56
2023-12-21T15:13:07.482Z,5.92
2023-12-21T15:15:34.262Z,6.50
2023-12-21T15:18:00.837Z,6.12
2023-12-21T15:20:27.345Z,6.15
2023-12-21T15:22:53.855Z,6.14
2023-12-21T15:25:21.094Z,6.07
2023-12-21T15:27:47.911Z,5.96
2023-12-21T15:30:14.801Z,5.83
2023-12-21T15:32:41.285Z,6.09
2023-12-21T15:35:08.313Z,5.82
2023-12-21T15:37:34.835Z,6.07
2023-12-21T15:40:01.378Z,6.32
2023-12-21T15:42:27.709Z,6.34
2023-12-21T15:44:54.137Z,6.37
2023-12-21T15:47:20.518Z,6.43
2023-12-21T15:49:46.981Z,5.72
2023-12-21T15:52:13.532Z,6.35
2023-12-21T15:54:39.986Z,6.40
2023-12-21T15:57:06.437Z,6.48
2023-12-21T15:59:35.922Z,6.02
2023-12-21T16:02:03.870Z,6.30
2023-12-21T16:04:32.126Z,6.08
2023-12-21T16:07:00.441Z,6.09
2023-12-21T16:09:29.844Z,5.87
2023-12-21T16:11:56.261Z,6.42
2023-12-21T16:14:22.657Z,6.54
2023-12-21T16:16:49.221Z,6.44
2023-12-21T16:19:15.860Z,6.62
2023-12-21T16:21:42.509Z,6.38
2023-12-21T16:24:11.059Z,6.33
2023-12-21T16:26:41.129Z,6.64
2023-12-21T16:29:07.906Z,6.26
2023-12-21T16:31:34.683Z,6.40
2023-12-21T16:34:01.198Z,6.43
2023-12-21T16:36:27.779Z,6.01
2023-12-21T16:38:54.242Z,6.33
2023-12-21T16:41:20.668Z,6.11
2023-12-21T16:43:47.283Z,6.09
2023-12-21T16:46:15.016Z,6.24
2023-12-21T16:48:41.626Z,5.99
2023-12-21T16:51:10.390Z,6.30
2023-12-21T16:53:38.336Z,6.08
2023-12-21T16:56:05.050Z,6.21
2023-12-21T16:58:31.589Z,6.11
2023-12-21T17:00:58.087Z,6.25
2023-12-21T17:03:25.373Z,6.37
2023-12-21T17:05:51.912Z,5.99
2023-12-21T17:08:18.456Z,6.30
2023-12-21T17:10:44.888Z,6.40
2023-12-21T17:13:11.525Z,6.43
2023-12-21T17:15:37.992Z,6.55
2023-12-21T17:18:04.947Z,6.54
2023-12-21T17:20:33.997Z,6.52
2023-12-21T17:23:02.420Z,6.38
2023-12-21T17:25:28.981Z,6.11
2023-12-21T17:27:57.438Z,6.41
2023-12-21T17:30:25.941Z,6.24
2023-12-21T17:32:53.057Z,6.05
2023-12-21T17:35:19.650Z,6.08
2023-12-21T17:37:46.413Z,5.54
2023-12-21T17:40:15.969Z,5.94
2023-12-21T17:42:43.368Z,6.18
2023-12-21T17:45:10.847Z,6.30
2023-12-21T17:47:37.866Z,6.33
2023-12-21T17:50:05.362Z,6.36
2023-12-21T17:52:33.391Z,6.10
2023-12-21T17:54:59.875Z,6.07
2023-12-21T17:57:26.302Z,5.54
2023-12-21T17:59:53.733Z,6.08
2023-12-21T18:02:21.150Z,6.13
2023-12-21T18:04:50.149Z,5.74
2023-12-21T18:07:16.685Z,5.96
2023-12-21T18:09:43.171Z,5.87
2023-12-21T18:12:09.818Z,5.44
2023-12-21T18:14:36.296Z,5.74
2023-12-21T18:17:02.729Z,5.14
2023-12-21T18:19:29.250Z,5.39
2023-12-21T18:21:56.023Z,5.69
2023-12-21T18:24:24.305Z,5.31
2023-12-21T18:26:50.712Z,5.50
2023-12-21T18:29:17.324Z,5.48
2023-12-21T18:31:43.713Z,5.65
2023-12-21T18:34:10.594Z,5.56
2023-12-21T18:36:37.244Z,5.42
2023-12-21T18:39:04.985Z,5.73
2023-12-21T18:41:31.436Z,5.58
2023-12-21T18:43:59.518Z,5.38
2023-12-21T18:46:25.967Z,5.46
2023-12-21T18:48:52.952Z,5.53
2023-12-21T18:51:19.393Z,5.52
2023-12-21T18:53:45.737Z,5.36
2023-12-21T18:56:13.260Z,5.60
2023-12-21T18:58:39.670Z,5.49
2023-12-21T19:01:06.069Z,5.46
2023-12-21T19:03:35.349Z,5.36
2023-12-21T19:06:01.879Z,5.49
2023-12-21T19:08:28.346Z,5.49
2023-12-21T19:10:56.761Z,5.37
2023-12-21T19:13:23.417Z,5.33
2023-12-21T19:15:49.837Z,5.52
2023-12-21T19:18:16.714Z,5.64
2023-12-21T19:20:45.654Z,5.40
2023-12-21T19:23:13.279Z,5.64
2023-12-21T19:25:39.724Z,5.47
2023-12-21T19:28:06.251Z,5.55
2023-12-21T19:30:32.685Z,5.62
2023-12-21T19:33:02.458Z,5.38
2023-12-21T19:35:28.879Z,5.40
2023-12-21T19:37:55.355Z,4.67
2023-12-21T19:40:21.746Z,5.21
2023-12-21T19:42:48.113Z,5.46
2023-12-21T19:45:14.671Z,5.48
2023-12-21T19:47:41.128Z,5.31
2023-12-21T19:50:07.992Z,5.93
2023-12-21T19:52:34.560Z,5.29
2023-12-21T19:55:01.102Z,5.62
2023-12-21T19:57:27.519Z,5.99
2023-12-21T19:59:55.523Z,6.04
2023-12-21T20:02:21.909Z,6.13
2023-12-21T20:04:48.442Z,6.16
2023-12-21T20:07:14.983Z,5.88
2023-12-21T20:09:41.360Z,5.69
2023-12-21T20:12:08.141Z,6.05
2023-12-21T20:14:34.574Z,5.89
2023-12-21T20:17:01.034Z,6.03
2023-12-21T20:19:28.113Z,5.80
2023-12-21T20:21:54.798Z,5.94
2023-12-21T20:24:22.572Z,6.09
2023-12-21T20:26:49.007Z,5.82
2023-12-21T20:29:15.570Z,5.87
2023-12-21T20:31:42.032Z,5.58
2023-12-21T20:34:12.999Z,6.01
2023-12-21T20:36:40.141Z,6.05
2023-12-21T20:39:07.637Z,5.78
2023-12-21T20:41:34.418Z,5.90
2023-12-21T20:44:00.855Z,5.97
2023-12-21T20:46:27.299Z,6.18
2023-12-21T20:48:53.716Z,5.85
2023-12-21T20:51:20.122Z,6.18
2023-12-21T20:53:46.533Z,6.11
2023-12-21T20:56:12.977Z,6.26
2023-12-21T20:58:39.394Z,6.05
2023-12-21T21:01:06.108Z,6.02
2023-12-21T21:03:37.710Z,6.24
2023-12-21T21:06:05.573Z,5.84
2023-12-21T21:08:32.039Z,5.81
2023-12-21T21:10:59.117Z,5.40
2023-12-21T21:13:25.597Z,4.93
2023-12-21T21:15:52.089Z,5.33
2023-12-21T21:18:18.581Z,5.31
2023-12-21T21:20:46.216Z,5.37
2023-12-21T21:23:12.655Z,4.89
2023-12-21T21:25:39.123Z,5.35
2023-12-21T21:28:05.673Z,4.97
2023-12-21T21:30:55.760Z,5.28
2023-12-21T21:33:18.559Z,5.31
2023-12-21T21:35:45.063Z,5.37
2023-12-21T21:38:11.503Z,5.36
2023-12-21T21:40:37.994Z,5.37
2023-12-21T21:43:04.475Z,5.45
2023-12-21T21:45:31.330Z,5.57
2023-12-21T21:47:57.866Z,5.20
2023-12-21T21:50:24.246Z,5.51
2023-12-21T21:52:51.048Z,5.40
2023-12-21T21:55:17.490Z,5.16
2023-12-21T21:57:43.958Z,5.58
2023-12-21T22:00:10.985Z,5.17
2023-12-21T22:02:37.467Z,5.62
2023-12-21T22:05:04.233Z,5.65
2023-12-21T22:07:30.796Z,5.46
2023-12-21T22:09:57.233Z,5.46
2023-12-21T22:12:23.624Z,5.74
2023-12-21T22:14:50.135Z,5.69
2023-12-21T22:17:16.637Z,5.69
2023-12-21T22:19:43.108Z,5.85
2023-12-21T22:22:10.035Z,5.73
2023-12-21T22:24:36.436Z,5.22
2023-12-21T22:27:02.887Z,5.84
2023-12-21T22:29:29.289Z,5.78
2023-12-21T22:31:55.682Z,5.67
2023-12-21T22:34:22.146Z,5.81
2023-12-21T22:36:48.609Z,5.85
2023-12-21T22:39:14.980Z,5.71
2023-12-21T22:41:41.408Z,5.62
2023-12-21T22:44:07.828Z,5.75
2023-12-21T22:46:34.354Z,5.57
2023-12-21T22:49:00.890Z,5.58
2023-12-21T22:51:27.355Z,5.85
2023-12-21T22:53:53.724Z,5.40
2023-12-21T22:56:20.286Z,5.70
2023-12-21T22:58:47.051Z,5.66
2023-12-21T23:01:19.201Z,5.83
2023-12-21T23:03:46.092Z,5.67
2023-12-21T23:06:12.541Z,5.80
2023-12-21T23:08:39.665Z,5.46
2023-12-21T23:11:06.189Z,5.71
2023-12-21T23:13:32.627Z,5.66
2023-12-21T23:16:01.065Z,5.73
2023-12-21T23:18:27.539Z,5.43
2023-12-21T23:20:54.047Z,5.81
2023-12-21T23:23:20.465Z,5.69
2023-12-21T23:25:46.977Z,4.74
2023-12-21T23:28:13.451Z,5.68
2023-12-21T23:30:39.950Z,5.75
2023-12-21T23:33:06.458Z,5.34
2023-12-21T23:35:32.930Z,5.31
2023-12-21T23:37:59.472Z,5.23
2023-12-21T23:40:26.611Z,5.53
2023-12-21T23:42:53.172Z,5.64
2023-12-21T23:45:19.855Z,5.59
2023-12-21T23:47:46.455Z,5.45
2023-12-21T23:50:13.090Z,5.48
2023-12-21T23:52:39.809Z,5.64
2023-12-21T23:55:06.822Z,5.31
2023-12-21T23:57:33.210Z,5.60
2023-12-21T23:59:59.614Z,5.51
